Time;durP1;ratioP1;P1;durP2;ratioP2;P2;SDS_P1;SDS_P2;PMS_P1;PMS_P2;Temp;Humidity;BMP_temperature;BMP_pressure;BME280_temperature;BME280_humidity;BME280_pressure;Samples;Min_cycle;Max_cycle;Signal;HPM_P1;HPM_P2
2021/12/19 00:00:45;;;;;;;5.57;3.77;;;;;;;1.68;61.09;102285.09;2607492;22;20145;-71
2021/12/19 00:03:07;;;;;;;7.20;3.80;;;;;;;1.87;60.78;102301.75;2607814;22;20249;-71
2021/12/19 00:09:17;;;;;;;6.65;4.15;;;;;;;2.06;60.19;102306.66;2607638;22;20137;-72
2021/12/19 00:10:17;;;;;;;6.57;3.93;;;;;;;1.94;59.96;102291.00;2607013;22;20246;-72
2021/12/19 00:11:23;;;;;;;5.77;3.53;;;;;;;1.90;60.40;102281.09;2606964;22;20243;-72
2021/12/19 00:12:24;;;;;;;7.25;4.20;;;;;;;2.01;59.81;102302.22;2607363;22;20146;-71
2021/12/19 00:13:25;;;;;;;6.70;3.67;;;;;;;1.96;60.55;102287.94;2607563;22;20188;-71
2021/12/19 00:14:26;;;;;;;6.88;3.90;;;;;;;1.99;60.25;102284.50;2593855;22;20166;-71
2021/12/19 00:15:27;;;;;;;6.80;3.40;;;;;;;2.07;60.33;102294.53;2593288;22;20181;-71
2021/12/19 00:16:27;;;;;;;7.83;4.10;;;;;;;2.01;60.41;102287.69;2607384;22;20159;-72
2021/12/19 00:17:28;;;;;;;7.03;4.03;;;;;;;1.39;60.19;102181.25;2606883;22;20154;-72
2021/12/19 00:18:28;;;;;;;6.93;4.10;;;;;;;2.14;60.15;102286.56;2607438;22;20148;-72
2021/12/19 00:19:29;;;;;;;7.10;4.10;;;;;;;1.43;59.81;102175.88;2606948;22;20529;-72
2021/12/19 00:20:29;;;;;;;7.77;3.60;;;;;;;2.18;59.81;102280.03;2594105;22;20520;-72
2021/12/19 00:21:30;;;;;;;6.93;4.00;;;;;;;2.23;59.84;102281.72;2581302;23;20158;-71
2021/12/19 00:22:32;;;;;;;7.50;3.60;;;;;;;2.22;60.08;102277.38;2593204;22;20152;-71
2021/12/19 00:23:33;;;;;;;6.30;3.70;;;;;;;2.09;60.16;102273.09;2607407;22;20371;-71
2021/12/19 00:24:33;;;;;;;6.17;3.80;;;;;;;1.65;60.08;102197.31;2607367;22;20206;-71
2021/12/19 00:25:34;;;;;;;6.33;3.60;;;;;;;2.24;59.86;102278.63;2606594;22;20204;-72
2021/12/19 00:26:34;;;;;;;7.73;4.10;;;;;;;1.45;59.81;102155.25;2607622;22;20649;-71
2021/12/19 00:27:35;;;;;;;6.00;3.83;;;;;;;2.20;60.24;102266.75;2606608;22;20596;-71
2021/12/19 00:28:36;;;;;;;8.10;3.90;;;;;;;1.72;59.51;102192.03;2607699;22;20612;-72
2021/12/19 00:29:36;;;;;;;6.50;4.10;;;;;;;1.84;59.58;102208.47;2606963;22;20596;-72
2021/12/19 00:30:37;;;;;;;6.10;3.67;;;;;;;2.33;60.15;102283.97;2607410;22;20262;-71
2021/12/19 00:31:38;;;;;;;6.45;3.45;;;;;;;2.34;59.73;102282.84;2607298;22;20511;-71
2021/12/19 00:32:40;;;;;;;9.10;3.27;;;;;;;2.18;59.41;102251.78;2607605;22;20149;-71
2021/12/19 00:33:41;;;;;;;5.53;3.85;;;;;;;2.39;60.07;102282.59;2608383;22;20871;-72
2021/12/19 00:34:42;;;;;;;6.40;3.40;;;;;;;2.38;59.93;102287.28;2608413;22;20145;-71
2021/12/19 00:35:42;;;;;;;5.00;3.23;;;;;;;2.25;59.72;102266.50;2607508;22;20152;-72
2021/12/19 00:36:44;;;;;;;6.87;3.43;;;;;;;1.74;59.88;102173.34;2608524;22;20319;-71
2021/12/19 00:37:44;;;;;;;5.75;3.35;;;;;;;2.44;59.97;102279.59;2607619;22;20150;-72
2021/12/19 00:38:46;;;;;;;5.83;3.13;;;;;;;1.85;59.79;102185.41;2608198;22;20150;-71
2021/12/19 00:39:48;;;;;;;5.30;3.58;;;;;;;2.24;59.92;102273.16;2607806;22;20162;-72
2021/12/19 00:40:49;;;;;;;5.30;3.38;;;;;;;2.46;59.77;102282.81;2594745;22;20627;-71
2021/12/19 00:41:52;;;;;;;8.40;3.93;;;;;;;2.44;59.95;102277.66;2594668;22;20488;-71
2021/12/19 00:43:03;;;;;;;5.97;3.22;;;;;;;2.46;59.48;102280.84;2608048;22;20148;-71
2021/12/19 00:44:13;;;;;;;5.55;3.60;;;;;;;2.48;60.23;102283.25;2594380;22;20195;-71
2021/12/19 00:45:24;;;;;;;5.47;3.50;;;;;;;2.48;59.76;102272.28;2596585;22;20606;-71
2021/12/19 00:46:27;;;;;;;6.15;3.78;;;;;;;2.49;59.68;102279.34;2608144;22;20191;-72
2021/12/19 00:47:27;;;;;;;6.25;3.70;;;;;;;2.01;60.42;102206.28;2607768;22;20207;-71
2021/12/19 00:48:28;;;;;;;6.07;3.83;;;;;;;2.00;59.91;102204.66;2608303;22;20276;-71
2021/12/19 00:49:29;;;;;;;7.43;3.57;;;;;;;2.51;59.79;102277.84;2607754;22;20592;-71
2021/12/19 00:50:30;;;;;;;4.80;3.40;;;;;;;2.54;60.04;102274.44;2608208;22;20174;-71
2021/12/19 00:51:30;;;;;;;6.85;4.05;;;;;;;2.59;59.95;102278.84;2594293;22;20210;-71
2021/12/19 00:52:31;;;;;;;6.30;3.57;;;;;;;2.16;59.36;102221.19;2594637;22;20150;-71
2021/12/19 00:53:32;;;;;;;4.60;3.27;;;;;;;2.61;59.80;102279.31;2607481;22;20149;-71
2021/12/19 00:54:33;;;;;;;8.60;4.10;;;;;;;2.61;60.35;102282.06;2608233;22;20153;-71
2021/12/19 00:55:33;;;;;;;6.93;3.80;;;;;;;2.51;59.49;102258.66;2607604;22;20156;-72
2021/12/19 00:56:35;;;;;;;5.00;3.43;;;;;;;2.12;59.28;102196.41;2608255;22;20145;-72
2021/12/19 00:57:36;;;;;;;9.85;4.38;;;;;;;2.65;59.45;102270.03;2607742;22;20157;-72
2021/12/19 00:58:36;;;;;;;9.90;4.40;;;;;;;2.60;59.27;102275.78;2608249;22;20149;-71
2021/12/19 00:59:37;;;;;;;9.97;4.43;;;;;;;2.50;58.86;102251.56;2607580;22;20185;-71
2021/12/19 01:00:37;;;;;;;7.17;4.13;;;;;;;2.19;58.98;102206.81;2608017;22;20145;-71
2021/12/19 01:01:38;;;;;;;5.90;3.80;;;;;;;2.62;59.08;102278.19;2608228;22;20176;-72
2021/12/19 01:02:39;;;;;;;8.03;4.23;;;;;;;2.60;59.99;102266.75;2608329;22;20145;-71
2021/12/19 01:03:43;;;;;;;4.90;3.63;;;;;;;2.53;59.31;102255.56;2608047;22;20146;-72
2021/12/19 01:04:44;;;;;;;5.80;3.92;;;;;;;2.59;59.34;102267.88;2607750;22;20149;-72
2021/12/19 01:05:44;;;;;;;4.77;3.30;;;;;;;2.62;59.31;102275.44;2593776;22;20158;-72
2021/12/19 01:06:47;;;;;;;5.60;3.67;;;;;;;2.66;59.30;102268.09;2594820;22;20222;-71
2021/12/19 01:07:48;;;;;;;5.85;3.45;;;;;;;2.43;59.53;102237.66;2607313;22;20195;-72
2021/12/19 01:08:48;;;;;;;5.73;3.70;;;;;;;2.75;58.87;102269.53;2608415;22;20206;-71
2021/12/19 01:09:49;;;;;;;6.87;3.90;;;;;;;2.12;58.73;102162.72;2607621;22;20152;-71
2021/12/19 01:10:50;;;;;;;6.37;3.70;;;;;;;2.72;58.62;102252.97;2608288;22;20149;-71
2021/12/19 01:11:50;;;;;;;7.13;4.17;;;;;;;2.53;58.39;102215.22;2607968;22;20145;-71
2021/12/19 01:12:51;;;;;;;5.00;3.57;;;;;;;2.82;58.37;102250.50;2608396;22;20331;-71
2021/12/19 01:13:52;;;;;;;5.37;3.87;;;;;;;2.25;58.30;102173.28;2607933;22;20150;-71
2021/12/19 01:14:53;;;;;;;6.37;4.03;;;;;;;2.86;57.99;102256.13;2608281;22;20146;-71
2021/12/19 01:15:56;;;;;;;7.22;4.25;;;;;;;2.95;58.01;102262.22;2607253;22;20237;-72
2021/12/19 01:16:57;;;;;;;5.45;3.92;;;;;;;2.89;57.65;102260.91;2608334;22;20554;-72
2021/12/19 01:17:58;;;;;;;5.43;3.93;;;;;;;2.74;57.90;102225.97;2607493;22;20149;-71
2021/12/19 01:18:59;;;;;;;5.82;4.07;;;;;;;2.51;57.60;102200.28;2608322;22;20493;-71
2021/12/19 01:19:59;;;;;;;6.10;3.97;;;;;;;3.00;58.11;102256.47;2607580;22;20150;-72
2021/12/19 01:21:00;;;;;;;5.90;3.80;;;;;;;3.04;57.90;102255.44;2608468;22;20149;-71
2021/12/19 01:22:00;;;;;;;6.50;4.10;;;;;;;3.08;57.77;102261.03;2607918;22;20160;-71
2021/12/19 01:23:02;;;;;;;7.40;4.47;;;;;;;3.12;57.62;102254.47;2608432;22;20156;-71
2021/12/19 01:24:03;;;;;;;5.30;3.97;;;;;;;2.55;57.54;102149.81;2607933;22;20155;-72
2021/12/19 01:25:04;;;;;;;5.40;4.10;;;;;;;3.08;57.81;102228.06;2608520;22;20475;-72
2021/12/19 01:26:05;;;;;;;5.00;3.83;;;;;;;2.92;57.15;102206.09;2607080;22;20563;-72
2021/12/19 01:27:06;;;;;;;7.03;4.03;;;;;;;3.10;57.40;102237.56;2608264;22;20177;-71
2021/12/19 01:28:08;;;;;;;6.30;3.97;;;;;;;3.23;57.14;102252.78;2607383;22;20153;-72
2021/12/19 01:29:11;;;;;;;6.47;3.90;;;;;;;3.22;56.92;102236.69;2608066;22;20150;-71
2021/12/19 01:30:12;;;;;;;6.90;3.72;;;;;;;3.26;57.22;102237.53;2607345;22;20559;-71
2021/12/19 01:31:13;;;;;;;7.35;3.97;;;;;;;2.88;57.12;102169.53;2608136;22;20154;-72
2021/12/19 01:32:13;;;;;;;5.67;4.10;;;;;;;2.82;56.45;102156.41;2607976;22;20185;-72
2021/12/19 01:33:14;;;;;;;7.23;4.30;;;;;;;3.38;57.07;102235.50;2608367;22;20156;-71
2021/12/19 01:34:15;;;;;;;6.40;4.30;;;;;;;2.66;57.19;102130.91;2607980;22;20150;-72
2021/12/19 01:35:18;;;;;;;6.00;4.10;;;;;;;3.36;56.71;102245.25;2607619;22;20150;-72
2021/12/19 01:36:19;;;;;;;6.32;4.00;;;;;;;3.37;57.04;102246.88;2594415;22;20702;-71
2021/12/19 01:37:20;;;;;;;6.65;3.97;;;;;;;3.31;57.65;102226.28;2581364;22;20167;-71
2021/12/19 01:38:20;;;;;;;5.80;4.03;;;;;;;3.13;57.35;102200.34;2594526;22;20155;-71
2021/12/19 01:39:21;;;;;;;6.57;4.23;;;;;;;1.97;56.63;102019.00;2607702;22;20182;-72
2021/12/19 01:40:22;;;;;;;6.93;4.00;;;;;;;3.31;56.91;102240.03;2607958;22;20157;-72
2021/12/19 01:41:22;;;;;;;6.23;4.40;;;;;;;3.33;56.96;102235.00;2608116;22;20147;-71
2021/12/19 01:42:30;;;;;;;6.00;4.30;;;;;;;3.32;57.41;102227.91;2608071;22;20158;-71
2021/12/19 01:43:31;;;;;;;6.68;3.80;;;;;;;2.74;57.20;102143.66;2607739;22;20161;-72
2021/12/19 01:44:31;;;;;;;7.13;4.43;;;;;;;3.32;57.96;102228.69;2594426;22;20177;-71
2021/12/19 01:45:35;;;;;;;4.77;3.50;;;;;;;3.33;57.12;102226.75;2593856;22;20469;-71
2021/12/19 01:46:36;;;;;;;8.05;4.10;;;;;;;3.10;57.35;102199.13;2608077;22;20286;-72
2021/12/19 01:47:38;;;;;;;7.20;4.50;;;;;;;3.28;58.01;102227.81;2607348;22;20149;-72
2021/12/19 01:48:39;;;;;;;6.82;4.38;;;;;;;3.06;57.96;102214.69;2608103;22;20223;-72
2021/12/19 01:49:39;;;;;;;6.35;4.05;;;;;;;3.16;58.33;102225.16;2593969;22;20639;-72
2021/12/19 01:50:41;;;;;;;6.10;4.17;;;;;;;3.14;58.19;102221.97;2594414;22;20555;-72
2021/12/19 01:51:42;;;;;;;5.63;4.30;;;;;;;3.18;57.61;102222.88;2594051;22;20522;-72
2021/12/19 01:52:42;;;;;;;6.70;4.53;;;;;;;3.14;57.75;102216.47;2581866;22;20166;-72
2021/12/19 01:53:43;;;;;;;6.43;4.60;;;;;;;3.16;57.84;102214.16;2594542;22;20152;-71
2021/12/19 01:54:45;;;;;;;8.30;4.70;;;;;;;2.92;58.23;102175.09;2594411;22;20197;-71
2021/12/19 01:55:47;;;;;;;6.88;4.60;;;;;;;3.13;58.40;102200.34;2593512;22;20691;-71
2021/12/19 01:56:48;;;;;;;6.05;4.75;;;;;;;3.21;57.65;102207.59;2595325;22;20144;-72
2021/12/19 01:57:49;;;;;;;6.80;4.87;;;;;;;3.18;57.52;102200.91;2594500;22;20178;-72
2021/12/19 01:58:49;;;;;;;6.43;4.47;;;;;;;3.16;57.13;102207.91;2595448;22;20444;-72
2021/12/19 01:59:53;;;;;;;6.23;4.53;;;;;;;2.62;57.53;102124.53;2594679;22;20377;-71
2021/12/19 02:00:56;;;;;;;8.13;5.28;;;;;;;3.13;57.59;102203.91;2595216;22;20150;-72
2021/12/19 02:01:57;;;;;;;7.07;4.78;;;;;;;3.03;57.96;102182.47;2595009;22;20212;-72
2021/12/19 02:02:58;;;;;;;7.73;4.80;;;;;;;3.18;57.24;102200.09;2595399;22;20151;-72
2021/12/19 02:03:58;;;;;;;7.17;5.07;;;;;;;3.14;57.88;102207.44;2595132;22;20157;-72
2021/12/19 02:04:59;;;;;;;8.03;4.77;;;;;;;2.66;57.89;102126.22;2595336;22;20427;-72
2021/12/19 02:05:59;;;;;;;7.27;4.97;;;;;;;2.54;57.87;102100.78;2594247;22;20153;-72
2021/12/19 02:07:01;;;;;;;6.97;4.80;;;;;;;3.14;57.70;102207.44;2595479;22;20497;-71
2021/12/19 02:08:03;;;;;;;7.47;4.75;;;;;;;3.16;58.08;102202.41;2594264;22;20197;-72
2021/12/19 02:09:06;;;;;;;8.73;5.05;;;;;;;2.88;57.70;102149.50;2594533;22;20163;-72
2021/12/19 02:10:09;;;;;;;8.63;5.00;;;;;;;2.87;58.18;102167.13;2593818;22;20158;-72
2021/12/19 02:11:09;;;;;;;6.97;5.10;;;;;;;2.78;57.93;102158.25;2594432;22;20165;-71
2021/12/19 02:12:11;;;;;;;8.60;5.60;;;;;;;3.00;57.60;102187.84;2594003;22;20155;-71
2021/12/19 02:13:15;;;;;;;7.22;5.05;;;;;;;1.58;58.03;101984.25;2595388;22;20173;-71
2021/12/19 02:14:16;;;;;;;7.32;4.95;;;;;;;2.98;58.37;102182.72;2595055;22;20147;-72
2021/12/19 02:15:20;;;;;;;7.33;5.17;;;;;;;2.54;58.10;102101.59;2593873;22;20205;-71
2021/12/19 02:16:21;;;;;;;9.40;5.45;;;;;;;2.97;58.26;102177.59;2582328;22;20184;-71
2021/12/19 02:17:21;;;;;;;8.23;5.37;;;;;;;2.60;58.19;102118.63;2593908;22;20154;-71
2021/12/19 02:18:23;;;;;;;7.27;5.07;;;;;;;3.01;58.14;102162.78;2595056;22;20154;-71
2021/12/19 02:19:24;;;;;;;7.72;4.97;;;;;;;2.15;58.33;102035.91;2593712;22;20193;-71
2021/12/19 02:20:26;;;;;;;7.35;4.78;;;;;;;3.08;57.82;102170.41;2594409;22;20628;-71
2021/12/19 02:21:27;;;;;;;7.78;5.22;;;;;;;3.01;58.10;102178.47;2595253;22;20169;-72
2021/12/19 02:22:27;;;;;;;7.20;5.37;;;;;;;2.86;58.58;102166.31;2595064;22;20156;-72
2021/12/19 02:23:28;;;;;;;7.13;4.93;;;;;;;2.62;58.75;102133.56;2595165;22;20497;-72
2021/12/19 02:24:29;;;;;;;7.95;5.10;;;;;;;2.62;58.54;102130.81;2595000;22;20154;-72
2021/12/19 02:25:30;;;;;;;7.40;5.67;;;;;;;2.89;58.86;102164.81;2593558;22;20154;-71
2021/12/19 02:26:30;;;;;;;7.60;5.37;;;;;;;2.80;58.20;102148.53;2594254;22;20147;-71
2021/12/19 02:27:31;;;;;;;7.97;5.13;;;;;;;2.96;58.62;102165.03;2594497;22;20372;-71
2021/12/19 02:28:31;;;;;;;7.97;5.47;;;;;;;3.00;58.69;102158.47;2595124;22;20600;-71
2021/12/19 02:29:32;;;;;;;8.13;5.30;;;;;;;2.85;58.64;102134.53;2594661;22;20495;-72
2021/12/19 02:30:33;;;;;;;7.47;5.10;;;;;;;2.66;58.62;102103.47;2594998;22;20205;-72
2021/12/19 02:31:33;;;;;;;8.40;4.90;;;;;;;3.07;58.29;102164.13;2594984;22;20182;-72
2021/12/19 02:32:36;;;;;;;9.03;5.93;;;;;;;3.04;58.17;102164.84;2595018;22;20156;-72
2021/12/19 02:33:41;;;;;;;7.57;5.50;;;;;;;2.88;58.36;102144.84;2594126;22;20458;-72
2021/12/19 02:34:44;;;;;;;9.27;5.90;;;;;;;3.12;58.00;102163.84;2594509;22;20601;-72
2021/12/19 02:35:52;;;;;;;7.97;5.90;;;;;;;2.63;58.15;102080.28;2593311;22;20161;-72
2021/12/19 02:48:14;;;;;;;11.15;5.95;;;;;;;2.68;57.74;102088.25;2580525;23;20139;-72
2021/12/19 02:49:15;;;;;;;8.83;5.77;;;;;;;2.79;58.44;102119.50;2586586;22;20599;-71
2021/12/19 02:50:20;;;;;;;8.90;5.90;;;;;;;2.96;58.48;102130.13;2594460;22;20245;-72
2021/12/19 02:51:20;;;;;;;9.68;5.70;;;;;;;2.93;58.04;102139.06;2600276;22;20231;-72
2021/12/19 02:52:21;;;;;;;8.13;5.90;;;;;;;2.92;58.16;102131.19;2607616;22;20629;-72
2021/12/19 02:53:29;;;;;;;8.80;5.70;;;;;;;2.79;58.46;102104.97;2607748;22;20164;-72
2021/12/19 02:54:30;;;;;;;8.93;5.70;;;;;;;2.25;58.53;102030.69;2607567;22;20150;-72
2021/12/19 02:55:31;;;;;;;7.37;5.67;;;;;;;2.28;58.46;102024.53;2606610;22;20149;-72
2021/12/19 02:56:31;;;;;;;8.27;5.70;;;;;;;2.91;58.10;102121.38;2607966;22;20629;-71
2021/12/19 02:57:32;;;;;;;9.97;6.10;;;;;;;2.89;58.14;102126.41;2607372;22;20149;-72
2021/12/19 02:58:35;;;;;;;7.70;5.93;;;;;;;2.85;58.00;102131.00;2607780;22;20144;-72
2021/12/19 02:59:36;;;;;;;9.52;6.07;;;;;;;2.27;58.49;102044.06;2607150;22;20251;-71
2021/12/19 03:00:37;;;;;;;8.53;5.87;;;;;;;2.71;58.27;102122.41;2607765;22;20153;-72
2021/12/19 03:01:38;;;;;;;7.35;5.97;;;;;;;2.68;58.93;102109.41;2607375;22;20148;-71
2021/12/19 03:02:39;;;;;;;9.07;5.30;;;;;;;2.74;58.80;102119.75;2607821;22;20524;-72
2021/12/19 03:03:40;;;;;;;7.57;5.63;;;;;;;2.75;58.15;102115.09;2607708;22;20145;-72
2021/12/19 03:05:01;;;;;;;8.50;5.67;;;;;;;2.75;58.58;102115.09;2607887;22;20228;-71
2021/12/19 03:06:02;;;;;;;7.53;5.55;;;;;;;2.72;58.03;102113.03;2593001;22;20519;-71
2021/12/19 03:07:03;;;;;;;8.30;5.70;;;;;;;2.62;58.49;102091.59;2594503;22;20637;-72
2021/12/19 03:08:07;;;;;;;7.50;5.80;;;;;;;2.71;58.14;102111.44;2606762;22;20494;-72
2021/12/19 03:09:09;;;;;;;7.75;5.63;;;;;;;2.27;58.03;102046.81;2607795;22;20154;-71
2021/12/19 03:12:04;;;;;;;10.52;6.18;;;;;;;2.64;58.10;102106.56;2607633;22;20161;-72
2021/12/19 03:18:06;;;;;;;8.75;5.68;;;;;;;2.56;58.44;102101.25;2606885;22;20141;-71
2021/12/19 03:19:07;;;;;;;11.63;6.60;;;;;;;2.53;58.47;102100.00;2607887;22;20153;-71
2021/12/19 03:20:08;;;;;;;8.50;6.07;;;;;;;2.42;59.09;102090.72;2607151;22;20178;-72
2021/12/19 03:21:12;;;;;;;8.53;6.20;;;;;;;2.15;58.95;102047.66;2607816;22;20188;-72
2021/12/19 03:22:13;;;;;;;8.80;6.07;;;;;;;2.22;58.47;102055.28;2607574;22;20160;-71
2021/12/19 03:23:14;;;;;;;9.87;6.23;;;;;;;1.98;58.74;102008.81;2607928;22;20149;-72
2021/12/19 03:24:15;;;;;;;7.20;5.80;;;;;;;2.21;58.79;102040.81;2607518;22;20236;-72
2021/12/19 03:25:16;;;;;;;9.17;6.10;;;;;;;2.54;58.43;102095.31;2607405;22;20156;-71
2021/12/19 03:26:16;;;;;;;10.27;6.50;;;;;;;2.54;58.79;102089.81;2607595;22;20156;-71
2021/12/19 03:27:17;;;;;;;10.10;6.20;;;;;;;2.55;58.56;102094.97;2607408;22;20447;-71
2021/12/19 03:28:17;;;;;;;9.07;6.03;;;;;;;2.37;58.31;102076.44;2607510;22;20156;-71
2021/12/19 03:29:18;;;;;;;10.00;6.23;;;;;;;2.56;58.25;102085.56;2607436;22;20582;-72
2021/12/19 03:30:19;;;;;;;11.97;6.50;;;;;;;2.43;58.10;102066.81;2607346;22;20163;-71
2021/12/19 03:31:20;;;;;;;9.15;5.88;;;;;;;1.89;58.31;101998.03;2607606;22;20154;-71
2021/12/19 03:32:20;;;;;;;11.17;6.10;;;;;;;2.48;58.43;102083.81;2607312;22;20664;-71
2021/12/19 03:33:21;;;;;;;8.23;5.87;;;;;;;2.43;58.49;102078.59;2607802;22;20397;-72
2021/12/19 03:34:21;;;;;;;10.47;6.50;;;;;;;2.02;58.38;102009.72;2594002;22;20160;-71
2021/12/19 03:35:23;;;;;;;8.73;6.53;;;;;;;2.35;58.16;102065.06;2593359;22;20148;-72
2021/12/19 03:36:24;;;;;;;7.80;6.18;;;;;;;2.36;58.44;102067.41;2607572;22;20159;-72
2021/12/19 03:37:25;;;;;;;8.60;5.93;;;;;;;2.37;58.56;102087.41;2606977;22;20188;-71
2021/12/19 03:38:25;;;;;;;9.43;6.13;;;;;;;1.82;58.67;102016.22;2607679;22;20152;-71
2021/12/19 03:39:33;;;;;;;7.43;5.77;;;;;;;2.30;59.32;102088.03;2607132;22;20530;-71
2021/12/19 03:40:36;;;;;;;9.00;6.25;;;;;;;2.24;58.64;102081.22;2607736;22;20138;-71
2021/12/19 03:41:36;;;;;;;7.72;5.65;;;;;;;1.67;59.12;102008.75;2607650;22;20157;-72
2021/12/19 03:42:39;;;;;;;8.43;5.97;;;;;;;2.20;59.31;102085.78;2607644;22;20175;-71
2021/12/19 03:43:40;;;;;;;9.27;6.28;;;;;;;1.68;59.45;102011.13;2607523;22;20147;-71
2021/12/19 03:44:41;;;;;;;9.30;6.22;;;;;;;2.18;59.01;102074.38;2607621;22;20169;-71
2021/12/19 03:45:44;;;;;;;8.40;5.90;;;;;;;1.48;58.73;101967.53;2593160;22;20153;-71
2021/12/19 03:46:44;;;;;;;8.63;6.00;;;;;;;2.16;59.22;102073.16;2594554;22;20143;-71
2021/12/19 03:47:46;;;;;;;9.07;6.00;;;;;;;1.82;59.01;102024.44;2606880;22;20643;-72
2021/12/19 03:48:47;;;;;;;8.73;6.15;;;;;;;2.18;58.63;102071.66;2607740;22;20148;-72
2021/12/19 03:49:47;;;;;;;7.97;5.77;;;;;;;2.18;58.75;102074.38;2593369;22;20148;-72
2021/12/19 03:50:49;;;;;;;9.50;6.13;;;;;;;1.70;58.21;101999.84;2581205;23;20645;-71
2021/12/19 03:51:50;;;;;;;9.13;6.07;;;;;;;2.21;59.02;102070.97;2580923;22;20234;-71
2021/12/19 03:52:53;;;;;;;11.17;5.70;;;;;;;1.82;58.64;102011.53;2594412;22;20138;-71
2021/12/19 03:53:53;;;;;;;8.45;6.15;;;;;;;2.18;59.26;102068.91;2607304;22;20164;-72
2021/12/19 03:54:54;;;;;;;8.73;5.63;;;;;;;2.19;59.26;102072.47;2607793;22;20221;-71
2021/12/19 03:55:54;;;;;;;8.37;5.27;;;;;;;2.15;59.45;102072.34;2606699;22;20150;-71
2021/12/19 03:56:55;;;;;;;9.70;5.80;;;;;;;2.06;59.27;102060.75;2607730;22;20151;-71
2021/12/19 03:57:57;;;;;;;7.83;5.57;;;;;;;2.03;59.10;102066.13;2606814;22;20233;-72
2021/12/19 03:58:59;;;;;;;10.40;6.18;;;;;;;2.08;59.58;102068.59;2607603;22;20152;-71
2021/12/19 03:59:59;;;;;;;8.38;5.88;;;;;;;1.57;58.88;101981.84;2606950;22;20571;-71
2021/12/19 04:01:04;;;;;;;8.90;6.10;;;;;;;2.00;59.53;102064.88;2607877;22;20146;-71
2021/12/19 04:02:05;;;;;;;7.82;5.82;;;;;;;1.95;59.92;102062.38;2607421;22;20150;-71
2021/12/19 04:03:09;;;;;;;8.07;5.50;;;;;;;1.91;59.76;102067.00;2594135;22;20237;-72
2021/12/19 04:04:09;;;;;;;8.70;5.72;;;;;;;1.87;59.34;102059.81;2594430;22;20250;-71
2021/12/19 04:05:10;;;;;;;8.93;5.50;;;;;;;1.17;59.60;101943.56;2607604;22;20147;-71
2021/12/19 04:06:11;;;;;;;8.47;5.53;;;;;;;1.86;59.84;102069.16;2606568;22;20229;-71
2021/12/19 04:07:12;;;;;;;7.77;6.03;;;;;;;1.66;59.81;102040.03;2608379;22;20146;-71
2021/12/19 04:08:12;;;;;;;8.00;5.83;;;;;;;1.80;59.76;102068.63;2607732;22;20146;-71
2021/12/19 04:09:13;;;;;;;10.03;6.30;;;;;;;1.78;59.95;102065.44;2608786;22;20401;-71
2021/12/19 04:10:14;;;;;;;9.67;5.90;;;;;;;0.71;60.15;101907.78;2607899;22;20381;-71
2021/12/19 04:11:15;;;;;;;9.27;5.95;;;;;;;1.71;60.33;102067.97;2608482;22;20597;-71
2021/12/19 04:12:16;;;;;;;10.37;6.20;;;;;;;1.71;60.37;102061.69;2608233;22;20476;-71
2021/12/19 04:13:18;;;;;;;9.70;6.18;;;;;;;1.74;60.68;102063.75;2608501;22;20453;-72
2021/12/19 04:14:18;;;;;;;7.07;5.55;;;;;;;1.72;60.95;102064.09;2608480;22;20157;-72
2021/12/19 04:15:19;;;;;;;8.07;6.20;;;;;;;1.03;60.66;101967.00;2607483;22;20425;-71
2021/12/19 04:16:20;;;;;;;8.75;6.07;;;;;;;1.76;60.38;102061.44;2608355;22;20156;-71
2021/12/19 04:17:21;;;;;;;9.80;6.30;;;;;;;1.74;60.76;102059.06;2607910;22;20238;-71
2021/12/19 04:18:21;;;;;;;8.85;6.50;;;;;;;1.20;60.66;101983.13;2608325;22;20154;-71
2021/12/19 04:19:22;;;;;;;8.70;5.83;;;;;;;1.75;60.65;102051.63;2607934;22;20249;-71
2021/12/19 04:20:22;;;;;;;10.63;6.73;;;;;;;1.80;60.92;102040.44;2608177;22;20154;-72
2021/12/19 04:21:23;;;;;;;8.27;5.87;;;;;;;1.82;60.56;102060.84;2608510;22;20192;-72
2021/12/19 04:22:23;;;;;;;8.17;6.40;;;;;;;1.79;60.24;102023.19;2608507;22;20151;-71
2021/12/19 04:23:24;;;;;;;8.47;5.73;;;;;;;1.72;60.08;102013.97;2608479;22;20178;-71
2021/12/19 04:24:25;;;;;;;8.83;6.40;;;;;;;1.94;60.46;102033.38;2608341;22;20500;-72
2021/12/19 04:25:26;;;;;;;9.25;6.10;;;;;;;1.92;60.47;102043.91;2607721;22;20154;-71
2021/12/19 04:26:27;;;;;;;8.40;6.37;;;;;;;1.93;60.73;102037.28;2608251;22;20157;-71
2021/12/19 04:27:29;;;;;;;10.30;6.13;;;;;;;1.99;60.60;102033.13;2607886;22;20151;-72
2021/12/19 04:28:29;;;;;;;9.77;6.45;;;;;;;1.59;60.05;101972.13;2608495;22;20159;-72
2021/12/19 04:29:30;;;;;;;9.33;6.33;;;;;;;2.07;59.91;102034.13;2607955;22;20142;-71
2021/12/19 04:30:31;;;;;;;11.10;6.07;;;;;;;1.87;59.84;101997.59;2608230;22;20223;-71
2021/12/19 04:31:31;;;;;;;9.87;6.20;;;;;;;2.13;59.78;102035.47;2608348;22;20167;-72
2021/12/19 04:32:37;;;;;;;8.87;6.10;;;;;;;2.17;59.69;102034.41;2594494;22;20873;-72
2021/12/19 04:33:40;;;;;;;9.52;6.00;;;;;;;1.82;60.08;101983.31;2595807;22;20515;-72
2021/12/19 04:34:40;;;;;;;8.73;6.05;;;;;;;2.17;59.88;102031.69;2608238;22;20142;-71
2021/12/19 04:35:44;;;;;;;8.90;6.30;;;;;;;2.22;59.53;102033.34;2593857;22;20630;-72
2021/12/19 04:36:49;;;;;;;9.77;6.30;;;;;;;1.42;59.60;101914.94;2595480;22;20154;-71
2021/12/19 04:39:42;;;;;;;8.35;6.05;;;;;;;2.26;59.09;102026.84;2608534;22;20571;-71
2021/12/19 04:40:27;;;;;;;7.78;5.93;;;;;;;1.44;59.37;101904.47;2587517;22;20429;-72
2021/12/19 04:54:50;;;;;;;10.38;7.30;;;;;;;2.05;59.69;102006.28;2608174;22;20196;-72
2021/12/19 04:58:52;;;;;;;9.68;7.15;;;;;;;1.52;60.29;101919.91;2607533;22;20136;-72
2021/12/19 05:00:41;;;;;;;10.32;7.70;;;;;;;2.01;60.05;101995.22;2608262;22;20505;-71
2021/12/19 05:03:14;;;;;;;11.75;7.72;;;;;;;1.92;60.55;101963.63;2608510;22;20219;-71
2021/12/19 05:14:02;;;;;;;11.65;7.38;;;;;;;1.98;60.53;101978.66;2606848;22;20208;-72
2021/12/19 05:14:48;;;;;;;10.95;7.03;;;;;;;2.18;59.91;101972.94;2608307;22;20140;-72
2021/12/19 05:15:51;;;;;;;9.85;7.15;;;;;;;2.24;60.03;101974.28;2607280;22;20128;-71
2021/12/19 05:16:52;;;;;;;11.02;7.65;;;;;;;2.30;59.81;101975.59;2608229;22;20172;-70
2021/12/19 05:18:00;;;;;;;10.07;7.50;;;;;;;2.31;60.18;101970.91;2607249;22;20159;-69
2021/12/19 05:19:07;;;;;;;10.25;7.03;;;;;;;2.34;59.93;101967.47;2607957;22;20600;-69
2021/12/19 05:21:22;;;;;;;10.53;7.37;;;;;;;2.39;59.64;101964.44;2608350;22;20604;-69
2021/12/19 05:22:27;;;;;;;10.50;6.63;;;;;;;2.42;60.17;101970.03;2608243;22;20132;-69
2021/12/19 05:25:37;;;;;;;10.98;7.53;;;;;;;2.44;60.02;101961.44;2607467;22;20144;-69
2021/12/19 05:26:42;;;;;;;10.57;7.70;;;;;;;2.40;59.39;101958.59;2608206;22;20150;-69
2021/12/19 05:27:44;;;;;;;11.07;7.45;;;;;;;2.47;59.52;101972.50;2607550;22;20643;-69
2021/12/19 05:28:48;;;;;;;11.90;7.97;;;;;;;2.45;59.61;101963.03;2608226;22;20148;-69
2021/12/19 05:29:48;;;;;;;13.48;8.18;;;;;;;2.41;59.37;101957.44;2607392;22;20466;-69
2021/12/19 05:30:49;;;;;;;10.23;7.83;;;;;;;2.37;60.46;101953.84;2608049;22;20179;-69
2021/12/19 05:31:49;;;;;;;10.83;8.07;;;;;;;2.38;60.00;101955.44;2607867;22;20148;-71
2021/12/19 05:32:53;;;;;;;10.60;7.83;;;;;;;1.33;59.76;101801.28;2608143;22;20181;-71
2021/12/19 05:33:53;;;;;;;11.98;9.00;;;;;;;2.25;60.27;101948.44;2607967;22;20177;-72
2021/12/19 05:34:54;;;;;;;11.20;7.83;;;;;;;2.37;60.31;101972.25;2608308;22;20146;-72
2021/12/19 05:45:58;;;;;;;13.13;8.70;;;;;;;2.18;61.04;101951.03;2607133;22;20277;-72
2021/12/19 05:46:59;;;;;;;11.87;8.70;;;;;;;1.83;61.34;101914.47;2608314;22;20251;-72
2021/12/19 05:48:00;;;;;;;12.98;8.93;;;;;;;2.12;61.15;101951.63;2593393;22;20190;-71
2021/12/19 05:49:01;;;;;;;13.77;8.80;;;;;;;2.12;61.09;101955.19;2581994;22;20156;-71
2021/12/19 05:50:04;;;;;;;19.17;9.07;;;;;;;2.13;60.83;101965.00;2593998;22;20205;-71
2021/12/19 05:51:04;;;;;;;14.93;9.00;;;;;;;1.51;61.06;101852.59;2608099;22;20152;-72
2021/12/19 05:52:05;;;;;;;11.40;8.67;;;;;;;1.88;61.17;101899.75;2607449;22;20254;-71
2021/12/19 05:53:06;;;;;;;12.67;8.53;;;;;;;2.15;61.09;101942.72;2608282;22;20151;-72
2021/12/19 05:54:09;;;;;;;15.83;8.87;;;;;;;2.14;61.11;101930.16;2607827;22;20229;-71
2021/12/19 05:55:10;;;;;;;12.15;8.60;;;;;;;1.03;60.89;101748.88;2608204;22;20613;-71
2021/12/19 05:56:10;;;;;;;14.87;8.67;;;;;;;2.21;61.12;101933.88;2593422;22;20673;-71
2021/12/19 05:57:11;;;;;;;12.20;8.93;;;;;;;1.72;60.66;101860.56;2594607;22;20231;-71